createdAt,value
2024-03-17T00:02:48.336Z,15.02
2024-03-17T00:07:51.156Z,17.88
2024-03-17T00:12:54.020Z,17.76
2024-03-17T00:17:56.915Z,16.29
2024-03-17T00:22:59.805Z,15.41
2024-03-17T00:28:04.195Z,14.76
2024-03-17T00:33:07.112Z,14.27
2024-03-17T00:38:13.598Z,13.89
2024-03-17T00:43:16.772Z,14.95
2024-03-17T00:48:20.050Z,16.51
2024-03-17T00:53:22.907Z,15.06
2024-03-17T00:58:25.787Z,14.10
2024-03-17T01:03:29.186Z,13.34
2024-03-17T01:08:32.905Z,12.84
2024-03-17T01:13:42.661Z,13.72
2024-03-17T01:18:46.853Z,16.72
2024-03-17T01:23:50.645Z,16.29
2024-03-17T01:28:53.433Z,14.62
2024-03-17T01:33:56.934Z,13.49
2024-03-17T01:39:01.215Z,12.76
2024-03-17T01:44:05.008Z,12.27
2024-03-17T01:49:09.187Z,11.85
2024-03-17T01:54:12.982Z,12.76
2024-03-17T01:59:15.966Z,15.88
2024-03-17T02:04:19.198Z,15.55
2024-03-17T02:09:23.165Z,14.13
2024-03-17T02:14:26.137Z,13.27
2024-03-17T02:19:28.975Z,12.55
2024-03-17T02:24:31.830Z,11.99
2024-03-17T02:29:34.662Z,11.62
2024-03-17T02:34:38.753Z,11.35
2024-03-17T02:39:42.600Z,11.11
2024-03-17T02:44:46.743Z,10.95
2024-03-17T02:49:51.727Z,10.85
2024-03-17T02:54:59.554Z,10.73
2024-03-17T03:00:05.619Z,10.58
2024-03-17T03:05:08.692Z,10.47
2024-03-17T03:10:11.621Z,10.38
2024-03-17T03:15:14.497Z,10.31
2024-03-17T03:20:17.412Z,10.25
2024-03-17T03:25:20.398Z,10.19
2024-03-17T03:30:23.311Z,10.16
2024-03-17T03:35:29.525Z,10.17
2024-03-17T03:40:33.929Z,10.15
2024-03-17T03:45:38.351Z,10.11
2024-03-17T03:50:41.781Z,10.08
2024-03-17T03:55:44.630Z,10.04
2024-03-17T04:00:47.448Z,10.04
2024-03-17T04:05:50.356Z,11.33
2024-03-17T04:10:53.220Z,14.63
2024-03-17T04:16:00.050Z,14.67
2024-03-17T04:21:13.156Z,13.22
2024-03-17T04:26:16.049Z,12.35
2024-03-17T04:31:19.007Z,11.73
2024-03-17T04:36:22.006Z,11.23
2024-03-17T04:41:25.092Z,10.78
2024-03-17T04:46:28.088Z,10.42
2024-03-17T04:51:31.089Z,10.09
2024-03-17T04:56:34.170Z,9.86
2024-03-17T05:01:37.421Z,9.68
2024-03-17T05:06:42.876Z,9.52
2024-03-17T05:11:46.108Z,9.45
2024-03-17T05:16:52.328Z,9.43
2024-03-17T05:21:55.174Z,9.41
2024-03-17T05:26:57.976Z,9.36
2024-03-17T05:32:00.867Z,9.30
2024-03-17T05:37:06.249Z,9.31
2024-03-17T05:42:10.338Z,9.28
2024-03-17T05:47:13.975Z,9.22
2024-03-17T05:52:16.862Z,9.15
2024-03-17T05:57:19.778Z,9.13
2024-03-17T06:02:22.723Z,9.05
2024-03-17T06:07:25.514Z,8.93
2024-03-17T06:12:28.415Z,8.81
2024-03-17T06:17:31.618Z,8.83
2024-03-17T06:22:35.772Z,8.78
2024-03-17T06:27:38.632Z,8.71
2024-03-17T06:32:42.588Z,8.58
2024-03-17T06:37:46.425Z,8.57
2024-03-17T06:42:49.291Z,8.49
2024-03-17T06:47:52.565Z,8.45
2024-03-17T06:52:55.489Z,8.44
2024-03-17T06:57:58.325Z,8.45
2024-03-17T07:03:01.428Z,8.47
2024-03-17T07:08:05.426Z,8.56
2024-03-17T07:13:08.418Z,8.55
2024-03-17T07:18:11.320Z,8.62
2024-03-17T07:23:14.441Z,8.68
2024-03-17T07:28:17.356Z,8.67
2024-03-17T07:33:23.223Z,8.71
2024-03-17T07:38:27.217Z,8.81
2024-03-17T07:43:32.637Z,8.94
2024-03-17T07:48:37.389Z,9.11
2024-03-17T07:53:42.531Z,9.26
2024-03-17T07:58:46.255Z,9.31
2024-03-17T08:03:56.683Z,9.33
2024-03-17T08:08:59.538Z,9.31
2024-03-17T08:14:03.000Z,9.37
2024-03-17T08:19:05.992Z,9.45
2024-03-17T08:24:09.312Z,9.50
2024-03-17T08:29:12.833Z,9.51
2024-03-17T08:34:15.716Z,9.48
2024-03-17T08:39:18.700Z,9.36
2024-03-17T08:44:21.662Z,9.31
2024-03-17T08:49:24.687Z,9.34
2024-03-17T08:54:27.523Z,9.37
2024-03-17T08:59:30.364Z,9.47
2024-03-17T09:04:33.439Z,9.64
2024-03-17T09:09:36.262Z,9.78
2024-03-17T09:14:39.258Z,9.84
2024-03-17T09:19:43.663Z,9.96
2024-03-17T09:24:47.332Z,9.99
2024-03-17T09:29:50.153Z,10.07
2024-03-17T09:34:53.105Z,10.13
2024-03-17T09:39:58.229Z,10.18
2024-03-17T09:45:02.118Z,10.27
2024-03-17T09:50:06.562Z,10.42
2024-03-17T09:55:15.786Z,10.50
2024-03-17T10:00:19.315Z,10.61
2024-03-17T10:05:26.820Z,10.68
2024-03-17T10:10:29.695Z,10.78
2024-03-17T10:15:33.123Z,10.83
2024-03-17T10:20:36.018Z,10.81
2024-03-17T10:25:41.776Z,11.07
2024-03-17T10:30:58.188Z,11.18
2024-03-17T10:36:02.985Z,11.40
2024-03-17T10:41:07.106Z,11.61
2024-03-17T10:46:15.513Z,11.83
2024-03-17T10:51:19.546Z,11.80
2024-03-17T10:56:25.297Z,11.82
2024-03-17T11:01:28.021Z,11.95
2024-03-17T11:06:31.008Z,12.02
2024-03-17T11:11:39.000Z,11.96
2024-03-17T11:16:41.842Z,11.89
2024-03-17T11:21:45.148Z,12.03
2024-03-17T11:26:48.013Z,12.20
2024-03-17T11:31:56.233Z,12.26
2024-03-17T11:37:00.918Z,12.28
2024-03-17T11:42:11.700Z,12.33
2024-03-17T11:47:14.400Z,12.33
2024-03-17T11:52:17.791Z,12.43
2024-03-17T11:57:23.919Z,12.68
2024-03-17T12:02:28.966Z,13.03
2024-03-17T12:07:45.508Z,13.28
2024-03-17T12:12:50.946Z,13.42
2024-03-17T12:17:54.590Z,13.52
2024-03-17T12:22:58.838Z,13.68
2024-03-17T12:28:02.065Z,13.74
2024-03-17T12:33:05.877Z,13.80
2024-03-17T12:38:22.871Z,13.83
2024-03-17T12:43:27.570Z,13.80
2024-03-17T12:48:30.742Z,13.69
2024-03-17T12:53:34.078Z,13.74
2024-03-17T12:58:55.095Z,13.66
2024-03-17T13:04:08.116Z,13.60
2024-03-17T13:09:11.433Z,13.40
2024-03-17T13:14:18.412Z,13.22
2024-03-17T13:19:23.516Z,13.19
2024-03-17T13:24:26.571Z,12.99
2024-03-17T13:29:29.322Z,12.75
2024-03-17T13:34:32.461Z,12.66
2024-03-17T13:39:35.610Z,12.98
2024-03-17T13:44:38.441Z,13.51
2024-03-17T13:49:41.588Z,14.05
2024-03-17T13:54:44.653Z,14.15
2024-03-17T13:59:49.605Z,13.91
2024-03-17T14:04:52.393Z,13.54
2024-03-17T14:09:55.274Z,13.34
2024-03-17T14:14:58.358Z,13.14
2024-03-17T14:20:01.238Z,12.98
2024-03-17T14:25:08.467Z,12.79
2024-03-17T14:30:14.513Z,12.66
2024-03-17T14:35:19.138Z,12.34
2024-03-17T14:40:24.980Z,12.22
2024-03-17T14:45:28.136Z,12.15
2024-03-17T14:50:31.055Z,12.19
2024-03-17T14:55:34.586Z,12.20
2024-03-17T15:00:37.521Z,12.24
2024-03-17T15:05:40.768Z,12.24
2024-03-17T15:10:43.640Z,12.27
2024-03-17T15:15:48.163Z,12.23
2024-03-17T15:20:54.648Z,12.17
2024-03-17T15:26:10.858Z,12.09
2024-03-17T15:31:14.235Z,12.00
2024-03-17T15:36:17.337Z,11.92
2024-03-17T15:41:20.109Z,11.89
2024-03-17T15:46:23.455Z,11.88
2024-03-17T15:51:28.679Z,11.80
2024-03-17T15:56:34.710Z,11.76
2024-03-17T16:01:37.537Z,11.74
2024-03-17T16:06:40.917Z,11.67
2024-03-17T16:11:43.810Z,11.61
2024-03-17T16:16:46.864Z,11.53
2024-03-17T16:21:49.990Z,11.50
2024-03-17T16:26:55.464Z,11.43
2024-03-17T16:31:59.991Z,11.38
2024-03-17T16:37:03.085Z,11.26
2024-03-17T16:42:06.500Z,11.14
2024-03-17T16:47:29.867Z,11.07
2024-03-17T16:52:33.954Z,11.00
2024-03-17T16:57:37.702Z,10.89
2024-03-17T17:02:45.351Z,10.79
2024-03-17T17:07:48.346Z,10.74
2024-03-17T17:12:51.430Z,10.67
2024-03-17T17:17:58.187Z,10.57
2024-03-17T17:23:01.521Z,10.49
2024-03-17T17:28:05.385Z,10.43
2024-03-17T17:33:08.777Z,10.37
2024-03-17T17:38:11.807Z,10.34
2024-03-17T17:43:14.740Z,10.31
2024-03-17T17:48:18.537Z,10.25
2024-03-17T17:53:21.690Z,10.19
2024-03-17T17:58:25.726Z,10.14
2024-03-17T18:03:29.108Z,10.07
2024-03-17T18:08:34.001Z,10.05
2024-03-17T18:13:37.004Z,10.01
2024-03-17T18:18:42.979Z,9.94
2024-03-17T18:23:45.970Z,9.88
2024-03-17T18:28:51.715Z,9.81
2024-03-17T18:33:57.724Z,9.79
2024-03-17T18:39:00.727Z,9.74
2024-03-17T18:44:05.149Z,9.70
2024-03-17T18:49:11.698Z,9.68
2024-03-17T18:54:14.563Z,9.68
2024-03-17T18:59:20.326Z,9.60
2024-03-17T19:04:23.424Z,9.57
2024-03-17T19:09:28.385Z,9.53
2024-03-17T19:14:31.374Z,9.44
2024-03-17T19:19:34.375Z,9.36
2024-03-17T19:24:37.341Z,9.32
2024-03-17T19:29:41.410Z,9.28
2024-03-17T19:34:44.960Z,9.24
2024-03-17T19:39:48.026Z,9.22
2024-03-17T19:44:51.105Z,9.18
2024-03-17T19:49:54.011Z,9.16
2024-03-17T19:54:57.498Z,9.14
2024-03-17T20:00:01.440Z,9.15
2024-03-17T20:05:14.713Z,9.14
2024-03-17T20:10:18.742Z,9.07
2024-03-17T20:15:24.376Z,9.06
2024-03-17T20:20:28.575Z,9.06
2024-03-17T20:25:33.427Z,9.06
2024-03-17T20:30:36.567Z,9.06
2024-03-17T20:35:41.668Z,9.01
2024-03-17T20:40:45.573Z,8.97
2024-03-17T20:45:48.654Z,8.93
2024-03-17T20:50:51.947Z,8.91
2024-03-17T20:55:54.961Z,8.84
2024-03-17T21:00:59.188Z,8.79
2024-03-17T21:06:03.807Z,8.76
2024-03-17T21:11:07.813Z,8.74
2024-03-17T21:16:11.230Z,8.75
2024-03-17T21:21:14.129Z,8.76
2024-03-17T21:26:17.224Z,8.71
2024-03-17T21:31:20.142Z,8.66
2024-03-17T21:36:24.207Z,8.65
2024-03-17T21:41:27.275Z,8.65
2024-03-17T21:46:30.232Z,8.61
2024-03-17T21:51:33.095Z,8.54
2024-03-17T21:56:35.960Z,8.53
2024-03-17T22:01:38.902Z,8.51
2024-03-17T22:06:42.218Z,8.50
2024-03-17T22:11:45.673Z,8.47
2024-03-17T22:16:49.038Z,8.46
2024-03-17T22:21:51.746Z,8.43
2024-03-17T22:26:54.698Z,8.32
2024-03-17T22:31:57.448Z,8.23
2024-03-17T22:37:00.550Z,8.12
2024-03-17T22:42:05.764Z,8.01
2024-03-17T22:47:09.111Z,7.95
2024-03-17T22:52:11.879Z,7.91
2024-03-17T22:57:15.193Z,7.86
2024-03-17T23:02:18.069Z,7.82
2024-03-17T23:07:21.378Z,7.78
2024-03-17T23:12:24.520Z,7.69
2024-03-17T23:17:27.293Z,7.56
2024-03-17T23:22:30.203Z,7.48
2024-03-17T23:27:33.038Z,7.40
2024-03-17T23:32:39.856Z,7.35
2024-03-17T23:37:42.773Z,7.32
2024-03-17T23:42:45.758Z,7.31
2024-03-17T23:47:49.025Z,7.23
2024-03-17T23:52:52.132Z,7.20
2024-03-17T23:57:54.997Z,7.17
